sensor_id;sensor_type;location;lat;lon;timestamp;temperature;humidity
56727;DHT22;42609;52.700;6.236;2023-04-27T00:00:12;5.00;99.90
56727;DHT22;42609;52.700;6.236;2023-04-27T00:02:38;5.00;99.90
56727;DHT22;42609;52.700;6.236;2023-04-27T00:05:07;4.90;99.90
56727;DHT22;42609;52.700;6.236;2023-04-27T00:07:38;4.90;99.90
56727;DHT22;42609;52.700;6.236;2023-04-27T00:10:04;4.90;99.90
56727;DHT22;42609;52.700;6.236;2023-04-27T00:12:29;4.90;99.90
56727;DHT22;42609;52.700;6.236;2023-04-27T00:14:55;4.80;99.90
56727;DHT22;42609;52.700;6.236;2023-04-27T00:17:20;4.80;99.90
56727;DHT22;42609;52.700;6.236;2023-04-27T00:19:48;4.80;99.90
56727;DHT22;42609;52.700;6.236;2023-04-27T00:22:14;4.70;99.90
56727;DHT22;42609;52.700;6.236;2023-04-27T00:24:40;4.70;99.90
56727;DHT22;42609;52.700;6.236;2023-04-27T00:27:06;4.70;99.90
56727;DHT22;42609;52.700;6.236;2023-04-27T00:29:32;4.60;99.90
56727;DHT22;42609;52.700;6.236;2023-04-27T00:31:57;4.60;99.90
56727;DHT22;42609;52.700;6.236;2023-04-27T00:34:23;4.60;99.90
56727;DHT22;42609;52.700;6.236;2023-04-27T00:36:49;4.60;99.90
56727;DHT22;42609;52.700;6.236;2023-04-27T00:39:14;4.60;99.90
56727;DHT22;42609;52.700;6.236;2023-04-27T00:41:40;4.60;99.90
56727;DHT22;42609;52.700;6.236;2023-04-27T00:44:06;4.50;99.90
56727;DHT22;42609;52.700;6.236;2023-04-27T00:46:32;4.50;99.90
56727;DHT22;42609;52.700;6.236;2023-04-27T00:48:59;4.50;99.90
56727;DHT22;42609;52.700;6.236;2023-04-27T00:51:25;4.50;99.90
56727;DHT22;42609;52.700;6.236;2023-04-27T00:53:52;4.50;99.90
56727;DHT22;42609;52.700;6.236;2023-04-27T00:56:18;4.40;99.90
56727;DHT22;42609;52.700;6.236;2023-04-27T00:58:44;4.40;99.90
56727;DHT22;42609;52.700;6.236;2023-04-27T01:01:10;4.40;99.90
56727;DHT22;42609;52.700;6.236;2023-04-27T01:03:36;4.40;99.90
56727;DHT22;42609;52.700;6.236;2023-04-27T01:06:01;4.30;99.90
56727;DHT22;42609;52.700;6.236;2023-04-27T01:08:30;4.30;99.90
56727;DHT22;42609;52.700;6.236;2023-04-27T01:10:55;4.30;99.90
56727;DHT22;42609;52.700;6.236;2023-04-27T01:13:21;4.30;99.90
56727;DHT22;42609;52.700;6.236;2023-04-27T01:15:47;4.20;99.90
56727;DHT22;42609;52.700;6.236;2023-04-27T01:18:13;4.20;99.90
56727;DHT22;42609;52.700;6.236;2023-04-27T01:20:38;4.20;99.90
56727;DHT22;42609;52.700;6.236;2023-04-27T01:23:04;4.10;99.90
56727;DHT22;42609;52.700;6.236;2023-04-27T01:25:32;4.10;99.90
56727;DHT22;42609;52.700;6.236;2023-04-27T01:27:58;4.10;99.90
56727;DHT22;42609;52.700;6.236;2023-04-27T01:30:24;4.10;99.90
56727;DHT22;42609;52.700;6.236;2023-04-27T01:32:50;4.10;99.90
56727;DHT22;42609;52.700;6.236;2023-04-27T01:35:16;4.00;99.90
56727;DHT22;42609;52.700;6.236;2023-04-27T01:37:41;4.00;99.90
56727;DHT22;42609;52.700;6.236;2023-04-27T01:40:07;4.00;99.90
56727;DHT22;42609;52.700;6.236;2023-04-27T01:42:33;4.00;99.90
56727;DHT22;42609;52.700;6.236;2023-04-27T01:44:59;3.90;99.90
56727;DHT22;42609;52.700;6.236;2023-04-27T01:47:25;3.90;99.90
56727;DHT22;42609;52.700;6.236;2023-04-27T01:49:51;3.90;99.90
56727;DHT22;42609;52.700;6.236;2023-04-27T01:52:17;3.80;99.90
56727;DHT22;42609;52.700;6.236;2023-04-27T01:54:43;3.90;99.90
56727;DHT22;42609;52.700;6.236;2023-04-27T01:57:08;3.80;99.90
56727;DHT22;42609;52.700;6.236;2023-04-27T01:59:34;3.80;99.90
56727;DHT22;42609;52.700;6.236;2023-04-27T02:01:59;3.80;99.90
56727;DHT22;42609;52.700;6.236;2023-04-27T02:04:25;3.70;99.90
56727;DHT22;42609;52.700;6.236;2023-04-27T02:06:51;3.70;99.90
56727;DHT22;42609;52.700;6.236;2023-04-27T02:09:16;3.70;99.90
56727;DHT22;42609;52.700;6.236;2023-04-27T02:11:42;3.70;99.90
56727;DHT22;42609;52.700;6.236;2023-04-27T02:14:08;3.60;99.90
56727;DHT22;42609;52.700;6.236;2023-04-27T02:16:33;3.70;99.90
56727;DHT22;42609;52.700;6.236;2023-04-27T02:18:59;3.60;99.90
56727;DHT22;42609;52.700;6.236;2023-04-27T02:21:24;3.60;99.90
56727;DHT22;42609;52.700;6.236;2023-04-27T02:23:50;3.60;99.90
56727;DHT22;42609;52.700;6.236;2023-04-27T02:26:20;3.60;99.90
56727;DHT22;42609;52.700;6.236;2023-04-27T02:28:47;3.60;99.90
56727;DHT22;42609;52.700;6.236;2023-04-27T02:31:13;3.60;99.90
56727;DHT22;42609;52.700;6.236;2023-04-27T02:33:39;3.60;99.90
56727;DHT22;42609;52.700;6.236;2023-04-27T02:36:06;3.60;99.90
56727;DHT22;42609;52.700;6.236;2023-04-27T02:38:32;3.60;99.90
56727;DHT22;42609;52.700;6.236;2023-04-27T02:40:57;3.50;99.90
56727;DHT22;42609;52.700;6.236;2023-04-27T02:43:23;3.50;99.90
56727;DHT22;42609;52.700;6.236;2023-04-27T02:45:49;3.50;99.90
56727;DHT22;42609;52.700;6.236;2023-04-27T02:48:15;3.40;99.90
56727;DHT22;42609;52.700;6.236;2023-04-27T02:50:41;3.40;99.90
56727;DHT22;42609;52.700;6.236;2023-04-27T02:53:08;3.40;99.90
56727;DHT22;42609;52.700;6.236;2023-04-27T02:55:33;3.40;99.90
56727;DHT22;42609;52.700;6.236;2023-04-27T02:57:59;3.40;99.90
56727;DHT22;42609;52.700;6.236;2023-04-27T03:00:25;3.30;99.90
56727;DHT22;42609;52.700;6.236;2023-04-27T03:02:51;3.30;99.90
56727;DHT22;42609;52.700;6.236;2023-04-27T03:05:17;3.30;99.90
56727;DHT22;42609;52.700;6.236;2023-04-27T03:07:43;3.30;99.90
56727;DHT22;42609;52.700;6.236;2023-04-27T03:10:09;3.30;99.90
56727;DHT22;42609;52.700;6.236;2023-04-27T03:12:37;3.20;99.90
56727;DHT22;42609;52.700;6.236;2023-04-27T03:15:03;3.20;99.90
56727;DHT22;42609;52.700;6.236;2023-04-27T03:17:29;3.20;99.90
56727;DHT22;42609;52.700;6.236;2023-04-27T03:19:54;3.20;99.90
56727;DHT22;42609;52.700;6.236;2023-04-27T03:22:20;3.10;99.90
56727;DHT22;42609;52.700;6.236;2023-04-27T03:24:45;3.10;99.90
56727;DHT22;42609;52.700;6.236;2023-04-27T03:27:11;3.10;99.90
56727;DHT22;42609;52.700;6.236;2023-04-27T03:29:37;3.10;99.90
56727;DHT22;42609;52.700;6.236;2023-04-27T03:32:03;3.10;99.90
56727;DHT22;42609;52.700;6.236;2023-04-27T03:34:29;3.00;99.90
56727;DHT22;42609;52.700;6.236;2023-04-27T03:36:55;3.00;99.90
56727;DHT22;42609;52.700;6.236;2023-04-27T03:39:21;3.00;99.90
56727;DHT22;42609;52.700;6.236;2023-04-27T03:41:46;3.00;99.90
56727;DHT22;42609;52.700;6.236;2023-04-27T03:44:12;3.00;99.90
56727;DHT22;42609;52.700;6.236;2023-04-27T03:46:38;2.90;99.90
56727;DHT22;42609;52.700;6.236;2023-04-27T03:49:03;3.00;99.90
56727;DHT22;42609;52.700;6.236;2023-04-27T03:51:30;3.00;99.90
56727;DHT22;42609;52.700;6.236;2023-04-27T03:53:58;3.00;99.90
56727;DHT22;42609;52.700;6.236;2023-04-27T03:56:24;3.00;99.90
56727;DHT22;42609;52.700;6.236;2023-04-27T03:58:50;3.00;99.90
56727;DHT22;42609;52.700;6.236;2023-04-27T04:01:16;3.00;99.90
56727;DHT22;42609;52.700;6.236;2023-04-27T04:03:43;2.90;99.90
56727;DHT22;42609;52.700;6.236;2023-04-27T04:06:09;2.90;99.90
56727;DHT22;42609;52.700;6.236;2023-04-27T04:08:38;2.90;99.90
56727;DHT22;42609;52.700;6.236;2023-04-27T04:11:03;2.90;99.90
56727;DHT22;42609;52.700;6.236;2023-04-27T04:13:29;2.90;99.90
56727;DHT22;42609;52.700;6.236;2023-04-27T04:16:08;2.80;99.90
56727;DHT22;42609;52.700;6.236;2023-04-27T04:18:34;2.90;99.90
56727;DHT22;42609;52.700;6.236;2023-04-27T04:21:01;2.90;99.90
56727;DHT22;42609;52.700;6.236;2023-04-27T04:23:27;2.90;99.90
56727;DHT22;42609;52.700;6.236;2023-04-27T04:25:55;2.80;99.90
56727;DHT22;42609;52.700;6.236;2023-04-27T04:28:22;2.80;99.90
56727;DHT22;42609;52.700;6.236;2023-04-27T04:30:48;2.80;99.90
56727;DHT22;42609;52.700;6.236;2023-04-27T04:33:14;2.80;99.90
56727;DHT22;42609;52.700;6.236;2023-04-27T04:35:40;2.80;99.90
56727;DHT22;42609;52.700;6.236;2023-04-27T04:38:09;2.80;99.90
56727;DHT22;42609;52.700;6.236;2023-04-27T04:40:38;2.80;99.90
56727;DHT22;42609;52.700;6.236;2023-04-27T04:43:04;2.90;99.90
56727;DHT22;42609;52.700;6.236;2023-04-27T04:45:29;2.90;99.90
56727;DHT22;42609;52.700;6.236;2023-04-27T04:47:55;2.90;99.90
56727;DHT22;42609;52.700;6.236;2023-04-27T04:50:21;2.90;99.90
56727;DHT22;42609;52.700;6.236;2023-04-27T04:52:48;3.00;99.90
56727;DHT22;42609;52.700;6.236;2023-04-27T04:55:13;3.10;99.90
56727;DHT22;42609;52.700;6.236;2023-04-27T04:57:39;3.40;99.90
56727;DHT22;42609;52.700;6.236;2023-04-27T05:00:05;3.50;99.90
56727;DHT22;42609;52.700;6.236;2023-04-27T05:02:39;3.70;99.90
56727;DHT22;42609;52.700;6.236;2023-04-27T05:05:08;3.80;99.90
56727;DHT22;42609;52.700;6.236;2023-04-27T05:07:34;3.90;99.90
56727;DHT22;42609;52.700;6.236;2023-04-27T05:09:59;4.00;99.90
56727;DHT22;42609;52.700;6.236;2023-04-27T05:12:25;4.10;99.90
56727;DHT22;42609;52.700;6.236;2023-04-27T05:14:51;4.30;99.90
56727;DHT22;42609;52.700;6.236;2023-04-27T05:17:17;4.30;99.90
56727;DHT22;42609;52.700;6.236;2023-04-27T05:19:42;4.30;99.90
56727;DHT22;42609;52.700;6.236;2023-04-27T05:22:08;4.40;99.90
56727;DHT22;42609;52.700;6.236;2023-04-27T05:24:33;4.60;99.90
56727;DHT22;42609;52.700;6.236;2023-04-27T05:26:59;4.60;99.90
56727;DHT22;42609;52.700;6.236;2023-04-27T05:29:25;4.70;99.90
56727;DHT22;42609;52.700;6.236;2023-04-27T05:31:51;4.70;99.90
56727;DHT22;42609;52.700;6.236;2023-04-27T05:34:18;4.80;99.90
56727;DHT22;42609;52.700;6.236;2023-04-27T05:36:43;4.90;99.90
56727;DHT22;42609;52.700;6.236;2023-04-27T05:39:11;5.00;99.90
56727;DHT22;42609;52.700;6.236;2023-04-27T05:41:37;5.00;99.90
56727;DHT22;42609;52.700;6.236;2023-04-27T05:44:02;5.10;99.90
56727;DHT22;42609;52.700;6.236;2023-04-27T05:46:28;5.20;99.90
56727;DHT22;42609;52.700;6.236;2023-04-27T05:48:54;5.30;99.90
56727;DHT22;42609;52.700;6.236;2023-04-27T05:51:20;5.40;99.90
56727;DHT22;42609;52.700;6.236;2023-04-27T05:53:45;5.40;99.90
56727;DHT22;42609;52.700;6.236;2023-04-27T05:56:11;5.50;99.90
56727;DHT22;42609;52.700;6.236;2023-04-27T05:58:36;5.60;99.90
56727;DHT22;42609;52.700;6.236;2023-04-27T06:01:02;5.70;99.90
56727;DHT22;42609;52.700;6.236;2023-04-27T06:03:29;5.80;99.90
56727;DHT22;42609;52.700;6.236;2023-04-27T06:05:56;5.80;99.90
56727;DHT22;42609;52.700;6.236;2023-04-27T06:08:21;5.90;99.90
56727;DHT22;42609;52.700;6.236;2023-04-27T06:10:47;6.10;99.90
56727;DHT22;42609;52.700;6.236;2023-04-27T06:13:14;6.10;99.90
56727;DHT22;42609;52.700;6.236;2023-04-27T06:15:40;6.20;99.90
56727;DHT22;42609;52.700;6.236;2023-04-27T06:18:06;6.30;99.90
56727;DHT22;42609;52.700;6.236;2023-04-27T06:20:31;6.30;99.90
56727;DHT22;42609;52.700;6.236;2023-04-27T06:22:57;6.40;99.90
56727;DHT22;42609;52.700;6.236;2023-04-27T06:25:24;6.50;99.90
56727;DHT22;42609;52.700;6.236;2023-04-27T06:27:51;6.60;99.90
56727;DHT22;42609;52.700;6.236;2023-04-27T06:30:17;6.70;99.90
56727;DHT22;42609;52.700;6.236;2023-04-27T06:32:42;6.80;99.90
56727;DHT22;42609;52.700;6.236;2023-04-27T06:35:08;6.90;99.90
56727;DHT22;42609;52.700;6.236;2023-04-27T06:37:34;7.00;99.90
56727;DHT22;42609;52.700;6.236;2023-04-27T06:40:00;7.10;99.90
56727;DHT22;42609;52.700;6.236;2023-04-27T06:42:25;7.20;99.90
56727;DHT22;42609;52.700;6.236;2023-04-27T06:44:55;7.30;99.90
56727;DHT22;42609;52.700;6.236;2023-04-27T06:47:21;7.50;99.90
56727;DHT22;42609;52.700;6.236;2023-04-27T06:49:47;7.50;99.90
56727;DHT22;42609;52.700;6.236;2023-04-27T06:52:13;7.60;99.90
56727;DHT22;42609;52.700;6.236;2023-04-27T06:54:38;7.80;99.90
56727;DHT22;42609;52.700;6.236;2023-04-27T06:57:04;7.90;99.90
56727;DHT22;42609;52.700;6.236;2023-04-27T06:59:30;8.00;99.90
56727;DHT22;42609;52.700;6.236;2023-04-27T07:01:56;8.10;99.90
56727;DHT22;42609;52.700;6.236;2023-04-27T07:04:22;8.10;99.90
56727;DHT22;42609;52.700;6.236;2023-04-27T07:06:48;8.30;99.90
56727;DHT22;42609;52.700;6.236;2023-04-27T07:09:13;8.40;99.90
56727;DHT22;42609;52.700;6.236;2023-04-27T07:11:39;8.50;99.90
56727;DHT22;42609;52.700;6.236;2023-04-27T07:14:05;8.70;99.90
56727;DHT22;42609;52.700;6.236;2023-04-27T07:16:30;8.70;99.90
56727;DHT22;42609;52.700;6.236;2023-04-27T07:18:56;8.80;99.90
56727;DHT22;42609;52.700;6.236;2023-04-27T07:21:21;8.90;99.90
56727;DHT22;42609;52.700;6.236;2023-04-27T07:23:47;9.00;99.90
56727;DHT22;42609;52.700;6.236;2023-04-27T07:26:13;9.10;99.90
56727;DHT22;42609;52.700;6.236;2023-04-27T07:28:38;9.20;99.90
56727;DHT22;42609;52.700;6.236;2023-04-27T07:31:05;9.30;99.90
56727;DHT22;42609;52.700;6.236;2023-04-27T07:33:32;9.40;99.90
56727;DHT22;42609;52.700;6.236;2023-04-27T07:35:58;9.30;99.90
56727;DHT22;42609;52.700;6.236;2023-04-27T07:38:24;9.40;99.90
56727;DHT22;42609;52.700;6.236;2023-04-27T07:40:50;9.50;99.90
56727;DHT22;42609;52.700;6.236;2023-04-27T07:43:16;9.70;99.90
56727;DHT22;42609;52.700;6.236;2023-04-27T07:45:42;9.80;99.90
56727;DHT22;42609;52.700;6.236;2023-04-27T07:48:08;9.80;99.90
56727;DHT22;42609;52.700;6.236;2023-04-27T07:50:34;9.90;99.90
56727;DHT22;42609;52.700;6.236;2023-04-27T07:52:59;10.00;99.90
56727;DHT22;42609;52.700;6.236;2023-04-27T07:55:26;10.20;99.90
56727;DHT22;42609;52.700;6.236;2023-04-27T07:57:57;10.20;99.90
56727;DHT22;42609;52.700;6.236;2023-04-27T08:00:23;10.30;99.90
56727;DHT22;42609;52.700;6.236;2023-04-27T08:02:53;10.20;99.90
56727;DHT22;42609;52.700;6.236;2023-04-27T08:05:19;10.30;99.90
56727;DHT22;42609;52.700;6.236;2023-04-27T08:07:44;10.40;99.90
56727;DHT22;42609;52.700;6.236;2023-04-27T08:10:10;10.50;99.90
56727;DHT22;42609;52.700;6.236;2023-04-27T08:12:35;10.50;99.90
56727;DHT22;42609;52.700;6.236;2023-04-27T08:15:01;10.60;99.90
56727;DHT22;42609;52.700;6.236;2023-04-27T08:17:27;10.70;99.90
56727;DHT22;42609;52.700;6.236;2023-04-27T08:19:52;10.70;99.90
56727;DHT22;42609;52.700;6.236;2023-04-27T08:22:18;10.80;99.90
56727;DHT22;42609;52.700;6.236;2023-04-27T08:24:44;10.90;99.90
56727;DHT22;42609;52.700;6.236;2023-04-27T08:27:09;11.00;99.90
56727;DHT22;42609;52.700;6.236;2023-04-27T08:29:35;11.10;99.90
56727;DHT22;42609;52.700;6.236;2023-04-27T08:32:02;11.20;99.90
56727;DHT22;42609;52.700;6.236;2023-04-27T08:34:28;11.20;99.90
56727;DHT22;42609;52.700;6.236;2023-04-27T08:36:54;11.30;99.90
56727;DHT22;42609;52.700;6.236;2023-04-27T08:39:21;11.40;99.90
56727;DHT22;42609;52.700;6.236;2023-04-27T08:41:47;11.40;99.90
56727;DHT22;42609;52.700;6.236;2023-04-27T08:44:12;11.40;99.90
56727;DHT22;42609;52.700;6.236;2023-04-27T08:46:38;11.40;99.90
56727;DHT22;42609;52.700;6.236;2023-04-27T08:49:04;11.60;99.90
56727;DHT22;42609;52.700;6.236;2023-04-27T08:51:31;11.70;99.90
56727;DHT22;42609;52.700;6.236;2023-04-27T08:53:58;11.60;99.90
56727;DHT22;42609;52.700;6.236;2023-04-27T08:56:26;11.60;99.90
56727;DHT22;42609;52.700;6.236;2023-04-27T08:58:53;11.60;99.90
56727;DHT22;42609;52.700;6.236;2023-04-27T09:01:19;11.70;99.90
56727;DHT22;42609;52.700;6.236;2023-04-27T09:03:45;11.70;99.90
56727;DHT22;42609;52.700;6.236;2023-04-27T09:06:12;11.70;99.90
56727;DHT22;42609;52.700;6.236;2023-04-27T09:08:48;11.80;99.90
56727;DHT22;42609;52.700;6.236;2023-04-27T09:11:35;12.00;99.90
56727;DHT22;42609;52.700;6.236;2023-04-27T09:14:13;12.10;99.90
56727;DHT22;42609;52.700;6.236;2023-04-27T09:16:40;12.00;99.10
56727;DHT22;42609;52.700;6.236;2023-04-27T09:19:06;12.00;99.50
56727;DHT22;42609;52.700;6.236;2023-04-27T09:21:38;12.20;99.90
56727;DHT22;42609;52.700;6.236;2023-04-27T09:24:11;12.10;98.60
56727;DHT22;42609;52.700;6.236;2023-04-27T09:26:38;12.20;99.50
56727;DHT22;42609;52.700;6.236;2023-04-27T09:29:03;12.30;99.90
56727;DHT22;42609;52.700;6.236;2023-04-27T09:31:31;12.40;99.90
56727;DHT22;42609;52.700;6.236;2023-04-27T09:33:57;12.50;99.60
56727;DHT22;42609;52.700;6.236;2023-04-27T09:36:23;12.60;99.40
56727;DHT22;42609;52.700;6.236;2023-04-27T09:38:51;12.60;96.90
56727;DHT22;42609;52.700;6.236;2023-04-27T09:41:17;12.70;96.00
56727;DHT22;42609;52.700;6.236;2023-04-27T09:43:44;12.70;95.00
56727;DHT22;42609;52.700;6.236;2023-04-27T09:46:13;12.80;95.40
56727;DHT22;42609;52.700;6.236;2023-04-27T09:48:40;12.80;95.60
56727;DHT22;42609;52.700;6.236;2023-04-27T09:51:05;12.80;95.60
56727;DHT22;42609;52.700;6.236;2023-04-27T09:53:39;12.90;96.10
56727;DHT22;42609;52.700;6.236;2023-04-27T10:01:51;13.40;97.30
56727;DHT22;42609;52.700;6.236;2023-04-27T10:07:11;13.50;94.80
56727;DHT22;42609;52.700;6.236;2023-04-27T10:09:48;13.30;92.70
56727;DHT22;42609;52.700;6.236;2023-04-27T10:12:21;13.40;90.70
56727;DHT22;42609;52.700;6.236;2023-04-27T10:14:58;13.30;91.60
56727;DHT22;42609;52.700;6.236;2023-04-27T10:17:31;13.50;93.20
56727;DHT22;42609;52.700;6.236;2023-04-27T10:19:59;13.60;91.80
56727;DHT22;42609;52.700;6.236;2023-04-27T10:22:46;13.40;90.80
56727;DHT22;42609;52.700;6.236;2023-04-27T10:25:16;13.40;88.10
56727;DHT22;42609;52.700;6.236;2023-04-27T10:27:43;13.50;85.20
56727;DHT22;42609;52.700;6.236;2023-04-27T10:30:12;13.60;90.00
56727;DHT22;42609;52.700;6.236;2023-04-27T10:32:49;13.70;90.60
56727;DHT22;42609;52.700;6.236;2023-04-27T10:35:16;13.80;90.00
56727;DHT22;42609;52.700;6.236;2023-04-27T10:37:42;13.90;88.90
56727;DHT22;42609;52.700;6.236;2023-04-27T10:40:10;13.90;85.80
56727;DHT22;42609;52.700;6.236;2023-04-27T10:42:39;14.00;84.00
56727;DHT22;42609;52.700;6.236;2023-04-27T10:45:05;14.00;84.30
56727;DHT22;42609;52.700;6.236;2023-04-27T10:47:42;14.10;85.90
56727;DHT22;42609;52.700;6.236;2023-04-27T10:50:11;14.20;84.00
56727;DHT22;42609;52.700;6.236;2023-04-27T10:52:44;14.30;84.80
56727;DHT22;42609;52.700;6.236;2023-04-27T10:55:19;14.30;84.70
56727;DHT22;42609;52.700;6.236;2023-04-27T10:57:56;14.50;81.90
56727;DHT22;42609;52.700;6.236;2023-04-27T11:00:26;14.60;82.90
56727;DHT22;42609;52.700;6.236;2023-04-27T11:02:57;14.70;84.20
56727;DHT22;42609;52.700;6.236;2023-04-27T11:05:27;14.80;84.30
56727;DHT22;42609;52.700;6.236;2023-04-27T11:08:12;14.70;82.30
56727;DHT22;42609;52.700;6.236;2023-04-27T11:10:50;14.90;78.50
56727;DHT22;42609;52.700;6.236;2023-04-27T11:13:23;14.80;81.90
56727;DHT22;42609;52.700;6.236;2023-04-27T11:15:54;15.00;82.50
56727;DHT22;42609;52.700;6.236;2023-04-27T11:18:31;15.00;81.50
56727;DHT22;42609;52.700;6.236;2023-04-27T11:21:17;15.00;75.80
56727;DHT22;42609;52.700;6.236;2023-04-27T11:23:43;15.20;76.80
56727;DHT22;42609;52.700;6.236;2023-04-27T11:26:13;15.30;76.30
56727;DHT22;42609;52.700;6.236;2023-04-27T11:28:40;15.40;76.40
56727;DHT22;42609;52.700;6.236;2023-04-27T11:31:06;15.60;76.40
56727;DHT22;42609;52.700;6.236;2023-04-27T11:33:32;15.40;73.10
56727;DHT22;42609;52.700;6.236;2023-04-27T11:35:58;15.60;74.90
56727;DHT22;42609;52.700;6.236;2023-04-27T11:38:24;15.80;74.60
56727;DHT22;42609;52.700;6.236;2023-04-27T11:40:59;15.60;71.20
56727;DHT22;42609;52.700;6.236;2023-04-27T11:43:25;15.70;69.90
56727;DHT22;42609;52.700;6.236;2023-04-27T11:45:51;15.90;71.80
56727;DHT22;42609;52.700;6.236;2023-04-27T11:48:18;16.10;71.30
56727;DHT22;42609;52.700;6.236;2023-04-27T11:50:47;16.20;71.60
56727;DHT22;42609;52.700;6.236;2023-04-27T11:53:13;16.20;71.80
56727;DHT22;42609;52.700;6.236;2023-04-27T11:55:40;16.30;71.40
56727;DHT22;42609;52.700;6.236;2023-04-27T11:58:12;16.40;70.50
56727;DHT22;42609;52.700;6.236;2023-04-27T12:00:38;16.40;69.60
56727;DHT22;42609;52.700;6.236;2023-04-27T12:03:04;16.40;70.30
56727;DHT22;42609;52.700;6.236;2023-04-27T12:05:30;16.50;71.40
56727;DHT22;42609;52.700;6.236;2023-04-27T12:07:55;16.60;71.80
56727;DHT22;42609;52.700;6.236;2023-04-27T12:10:21;16.50;69.80
56727;DHT22;42609;52.700;6.236;2023-04-27T12:12:47;16.60;70.40
56727;DHT22;42609;52.700;6.236;2023-04-27T12:15:12;16.60;69.30
56727;DHT22;42609;52.700;6.236;2023-04-27T12:17:38;16.80;69.50
56727;DHT22;42609;52.700;6.236;2023-04-27T12:20:05;16.70;69.80
56727;DHT22;42609;52.700;6.236;2023-04-27T12:22:31;16.80;69.50
56727;DHT22;42609;52.700;6.236;2023-04-27T12:24:56;16.90;69.30
56727;DHT22;42609;52.700;6.236;2023-04-27T12:27:22;16.90;67.20
56727;DHT22;42609;52.700;6.236;2023-04-27T12:29:48;17.00;66.80
56727;DHT22;42609;52.700;6.236;2023-04-27T12:32:13;17.10;66.50
56727;DHT22;42609;52.700;6.236;2023-04-27T12:34:39;17.00;64.70
56727;DHT22;42609;52.700;6.236;2023-04-27T12:37:05;16.90;63.70
56727;DHT22;42609;52.700;6.236;2023-04-27T12:39:30;16.80;63.60
56727;DHT22;42609;52.700;6.236;2023-04-27T12:41:56;16.70;64.40
56727;DHT22;42609;52.700;6.236;2023-04-27T12:44:23;16.90;64.90
56727;DHT22;42609;52.700;6.236;2023-04-27T12:46:48;17.10;65.80
56727;DHT22;42609;52.700;6.236;2023-04-27T12:49:15;17.20;65.70
56727;DHT22;42609;52.700;6.236;2023-04-27T12:51:42;17.30;64.10
56727;DHT22;42609;52.700;6.236;2023-04-27T12:54:08;17.30;61.60
56727;DHT22;42609;52.700;6.236;2023-04-27T12:56:35;17.30;61.10
56727;DHT22;42609;52.700;6.236;2023-04-27T12:59:01;17.20;60.20
56727;DHT22;42609;52.700;6.236;2023-04-27T13:01:26;16.80;59.00
56727;DHT22;42609;52.700;6.236;2023-04-27T13:03:58;17.00;60.10
56727;DHT22;42609;52.700;6.236;2023-04-27T13:06:25;16.90;58.50
56727;DHT22;42609;52.700;6.236;2023-04-27T13:08:51;16.80;58.60
56727;DHT22;42609;52.700;6.236;2023-04-27T13:11:17;16.90;59.40
56727;DHT22;42609;52.700;6.236;2023-04-27T13:13:44;16.80;59.50
56727;DHT22;42609;52.700;6.236;2023-04-27T13:16:10;16.90;61.60
56727;DHT22;42609;52.700;6.236;2023-04-27T13:18:37;17.00;62.40
56727;DHT22;42609;52.700;6.236;2023-04-27T13:21:03;17.10;63.10
56727;DHT22;42609;52.700;6.236;2023-04-27T13:23:30;17.30;62.40
56727;DHT22;42609;52.700;6.236;2023-04-27T13:25:56;17.40;62.20
56727;DHT22;42609;52.700;6.236;2023-04-27T13:28:21;17.40;62.40
56727;DHT22;42609;52.700;6.236;2023-04-27T13:30:47;17.20;61.70
56727;DHT22;42609;52.700;6.236;2023-04-27T13:33:13;17.10;61.30
56727;DHT22;42609;52.700;6.236;2023-04-27T13:35:39;16.80;61.90
56727;DHT22;42609;52.700;6.236;2023-04-27T13:38:05;16.30;62.10
56727;DHT22;42609;52.700;6.236;2023-04-27T13:40:31;16.20;62.00
56727;DHT22;42609;52.700;6.236;2023-04-27T13:42:56;16.40;62.60
56727;DHT22;42609;52.700;6.236;2023-04-27T13:45:22;16.50;63.00
56727;DHT22;42609;52.700;6.236;2023-04-27T13:47:48;16.60;62.90
56727;DHT22;42609;52.700;6.236;2023-04-27T13:50:13;16.80;62.90
56727;DHT22;42609;52.700;6.236;2023-04-27T13:52:39;16.90;62.00
56727;DHT22;42609;52.700;6.236;2023-04-27T13:55:06;16.80;61.90
56727;DHT22;42609;52.700;6.236;2023-04-27T13:57:32;16.80;61.90
56727;DHT22;42609;52.700;6.236;2023-04-27T13:59:58;16.90;62.40
56727;DHT22;42609;52.700;6.236;2023-04-27T14:02:28;17.00;62.10
56727;DHT22;42609;52.700;6.236;2023-04-27T14:04:54;17.10;61.20
56727;DHT22;42609;52.700;6.236;2023-04-27T14:07:21;16.90;59.80
56727;DHT22;42609;52.700;6.236;2023-04-27T14:09:47;16.90;60.90
56727;DHT22;42609;52.700;6.236;2023-04-27T14:12:12;17.10;60.60
56727;DHT22;42609;52.700;6.236;2023-04-27T14:14:38;17.30;61.30
56727;DHT22;42609;52.700;6.236;2023-04-27T14:17:04;17.30;60.90
56727;DHT22;42609;52.700;6.236;2023-04-27T14:19:30;17.50;60.00
56727;DHT22;42609;52.700;6.236;2023-04-27T14:21:56;17.20;57.70
56727;DHT22;42609;52.700;6.236;2023-04-27T14:24:22;17.10;58.30
56727;DHT22;42609;52.700;6.236;2023-04-27T14:26:48;17.10;58.40
56727;DHT22;42609;52.700;6.236;2023-04-27T14:29:15;17.10;58.40
56727;DHT22;42609;52.700;6.236;2023-04-27T14:31:41;17.20;58.10
56727;DHT22;42609;52.700;6.236;2023-04-27T14:34:07;17.20;58.40
56727;DHT22;42609;52.700;6.236;2023-04-27T14:36:33;17.30;59.70
56727;DHT22;42609;52.700;6.236;2023-04-27T14:38:59;17.10;59.80
56727;DHT22;42609;52.700;6.236;2023-04-27T14:41:28;17.20;60.40
56727;DHT22;42609;52.700;6.236;2023-04-27T14:43:54;16.90;60.60
56727;DHT22;42609;52.700;6.236;2023-04-27T14:46:20;16.90;60.50
56727;DHT22;42609;52.700;6.236;2023-04-27T14:48:46;16.90;60.80
56727;DHT22;42609;52.700;6.236;2023-04-27T14:51:12;16.80;60.20
56727;DHT22;42609;52.700;6.236;2023-04-27T14:53:38;16.70;60.00
56727;DHT22;42609;52.700;6.236;2023-04-27T14:56:04;16.50;59.90
56727;DHT22;42609;52.700;6.236;2023-04-27T14:58:30;16.60;60.60
56727;DHT22;42609;52.700;6.236;2023-04-27T15:00:59;16.40;61.00
56727;DHT22;42609;52.700;6.236;2023-04-27T15:03:29;16.50;61.30
56727;DHT22;42609;52.700;6.236;2023-04-27T15:05:57;16.50;61.50
56727;DHT22;42609;52.700;6.236;2023-04-27T15:08:22;16.40;61.00
56727;DHT22;42609;52.700;6.236;2023-04-27T15:10:48;16.30;59.90
56727;DHT22;42609;52.700;6.236;2023-04-27T15:13:14;16.30;60.50
56727;DHT22;42609;52.700;6.236;2023-04-27T15:15:40;16.40;60.70
56727;DHT22;42609;52.700;6.236;2023-04-27T15:18:05;16.40;61.30
56727;DHT22;42609;52.700;6.236;2023-04-27T15:20:31;16.50;61.80
56727;DHT22;42609;52.700;6.236;2023-04-27T15:22:56;16.50;62.00
56727;DHT22;42609;52.700;6.236;2023-04-27T15:25:22;16.40;61.70
56727;DHT22;42609;52.700;6.236;2023-04-27T15:27:48;16.50;62.10
56727;DHT22;42609;52.700;6.236;2023-04-27T15:30:14;16.50;62.40
56727;DHT22;42609;52.700;6.236;2023-04-27T15:32:40;16.50;61.90
56727;DHT22;42609;52.700;6.236;2023-04-27T15:35:06;16.40;61.70
56727;DHT22;42609;52.700;6.236;2023-04-27T15:37:34;16.40;61.50
56727;DHT22;42609;52.700;6.236;2023-04-27T15:40:02;16.40;61.50
56727;DHT22;42609;52.700;6.236;2023-04-27T15:42:27;16.40;61.30